sensor_id;sensor_type;location;lat;lon;timestamp;P1;durP1;ratioP1;P2;durP2;ratioP2
8254;SDS011;4167;48.162;11.542;2023-12-22T00:01:58;179.43;;;160.75;;
8254;SDS011;4167;48.162;11.542;2023-12-22T00:04:25;170.05;;;153.95;;
8254;SDS011;4167;48.162;11.542;2023-12-22T00:06:51;165.93;;;149.40;;
8254;SDS011;4167;48.162;11.542;2023-12-22T00:11:45;169.80;;;155.88;;
8254;SDS011;4167;48.162;11.542;2023-12-22T00:14:11;182.43;;;164.05;;
8254;SDS011;4167;48.162;11.542;2023-12-22T02:33:36;194.02;;;181.48;;
8254;SDS011;4167;48.162;11.542;2023-12-22T02:36:05;193.15;;;176.70;;
8254;SDS011;4167;48.162;11.542;2023-12-22T02:38:32;176.43;;;164.80;;
8254;SDS011;4167;48.162;11.542;2023-12-22T02:41:01;184.07;;;169.18;;
8254;SDS011;4167;48.162;11.542;2023-12-22T02:43:27;182.75;;;170.02;;
8254;SDS011;4167;48.162;11.542;2023-12-22T02:45:54;194.32;;;180.85;;
8254;SDS011;4167;48.162;11.542;2023-12-22T02:48:20;205.20;;;191.88;;
8254;SDS011;4167;48.162;11.542;2023-12-22T02:50:47;189.45;;;175.38;;
8254;SDS011;4167;48.162;11.542;2023-12-22T02:53:13;205.65;;;189.80;;
8254;SDS011;4167;48.162;11.542;2023-12-22T02:55:40;212.13;;;196.93;;
8254;SDS011;4167;48.162;11.542;2023-12-22T02:58:07;243.93;;;227.93;;
8254;SDS011;4167;48.162;11.542;2023-12-22T03:00:34;220.43;;;207.32;;
8254;SDS011;4167;48.162;11.542;2023-12-22T03:03:00;195.25;;;181.40;;
8254;SDS011;4167;48.162;11.542;2023-12-22T03:05:27;196.35;;;183.60;;
8254;SDS011;4167;48.162;11.542;2023-12-22T03:07:53;221.43;;;207.45;;
8254;SDS011;4167;48.162;11.542;2023-12-22T03:10:20;217.65;;;205.07;;
8254;SDS011;4167;48.162;11.542;2023-12-22T03:12:46;292.08;;;275.52;;
8254;SDS011;4167;48.162;11.542;2023-12-22T03:15:14;242.93;;;225.73;;
8254;SDS011;4167;48.162;11.542;2023-12-22T03:17:40;247.55;;;234.55;;
8254;SDS011;4167;48.162;11.542;2023-12-22T03:20:07;227.40;;;212.15;;
8254;SDS011;4167;48.162;11.542;2023-12-22T03:22:34;227.88;;;215.85;;
8254;SDS011;4167;48.162;11.542;2023-12-22T03:25:00;201.80;;;188.27;;
8254;SDS011;4167;48.162;11.542;2023-12-22T03:27:27;294.27;;;279.98;;
8254;SDS011;4167;48.162;11.542;2023-12-22T03:29:53;213.82;;;200.38;;
8254;SDS011;4167;48.162;11.542;2023-12-22T03:32:21;201.95;;;189.15;;
8254;SDS011;4167;48.162;11.542;2023-12-22T03:34:47;188.77;;;177.05;;
8254;SDS011;4167;48.162;11.542;2023-12-22T03:37:14;203.60;;;188.50;;
8254;SDS011;4167;48.162;11.542;2023-12-22T03:39:40;196.60;;;184.20;;
8254;SDS011;4167;48.162;11.542;2023-12-22T03:42:07;203.95;;;189.40;;
8254;SDS011;4167;48.162;11.542;2023-12-22T03:44:33;216.75;;;203.40;;
8254;SDS011;4167;48.162;11.542;2023-12-22T03:47:00;189.95;;;179.15;;
8254;SDS011;4167;48.162;11.542;2023-12-22T03:49:28;181.35;;;170.82;;
8254;SDS011;4167;48.162;11.542;2023-12-22T03:54:20;182.07;;;171.45;;
8254;SDS011;4167;48.162;11.542;2023-12-22T03:56:47;181.43;;;170.90;;
8254;SDS011;4167;48.162;11.542;2023-12-22T03:59:13;185.25;;;172.63;;
8254;SDS011;4167;48.162;11.542;2023-12-22T04:01:43;178.57;;;167.00;;
8254;SDS011;4167;48.162;11.542;2023-12-22T04:04:10;180.20;;;166.93;;
8254;SDS011;4167;48.162;11.542;2023-12-22T04:06:39;177.77;;;167.50;;
8254;SDS011;4167;48.162;11.542;2023-12-22T04:09:05;196.25;;;184.07;;
8254;SDS011;4167;48.162;11.542;2023-12-22T04:11:32;197.98;;;186.25;;
8254;SDS011;4167;48.162;11.542;2023-12-22T04:13:59;191.10;;;180.10;;
8254;SDS011;4167;48.162;11.542;2023-12-22T04:16:26;237.35;;;224.98;;
8254;SDS011;4167;48.162;11.542;2023-12-22T04:18:52;195.95;;;183.95;;
8254;SDS011;4167;48.162;11.542;2023-12-22T04:21:19;193.43;;;179.50;;
8254;SDS011;4167;48.162;11.542;2023-12-22T04:23:46;175.25;;;164.88;;
8254;SDS011;4167;48.162;11.542;2023-12-22T04:26:13;163.13;;;152.60;;
8254;SDS011;4167;48.162;11.542;2023-12-22T04:28:39;163.85;;;152.32;;
8254;SDS011;4167;48.162;11.542;2023-12-22T04:31:06;168.13;;;157.70;;
8254;SDS011;4167;48.162;11.542;2023-12-22T04:33:32;175.25;;;163.88;;
8254;SDS011;4167;48.162;11.542;2023-12-22T04:35:59;168.27;;;155.32;;
8254;SDS011;4167;48.162;11.542;2023-12-22T04:38:25;172.38;;;160.60;;
8254;SDS011;4167;48.162;11.542;2023-12-22T04:40:53;169.18;;;156.10;;
8254;SDS011;4167;48.162;11.542;2023-12-22T04:43:20;177.23;;;161.98;;
8254;SDS011;4167;48.162;11.542;2023-12-22T04:45:46;167.93;;;155.55;;
8254;SDS011;4167;48.162;11.542;2023-12-22T04:48:12;168.00;;;154.30;;
8254;SDS011;4167;48.162;11.542;2023-12-22T04:50:39;170.60;;;157.52;;
8254;SDS011;4167;48.162;11.542;2023-12-22T04:53:05;175.48;;;157.98;;
8254;SDS011;4167;48.162;11.542;2023-12-22T04:55:32;165.77;;;154.27;;
8254;SDS011;4167;48.162;11.542;2023-12-22T04:58:00;165.38;;;152.23;;
8254;SDS011;4167;48.162;11.542;2023-12-22T05:00:26;168.35;;;156.93;;
8254;SDS011;4167;48.162;11.542;2023-12-22T05:02:53;167.95;;;153.02;;
8254;SDS011;4167;48.162;11.542;2023-12-22T05:05:19;168.18;;;152.68;;
8254;SDS011;4167;48.162;11.542;2023-12-22T05:07:46;173.75;;;160.77;;
8254;SDS011;4167;48.162;11.542;2023-12-22T05:10:12;174.10;;;158.20;;
8254;SDS011;4167;48.162;11.542;2023-12-22T05:12:38;171.13;;;158.85;;
8254;SDS011;4167;48.162;11.542;2023-12-22T05:15:07;174.05;;;161.88;;
8254;SDS011;4167;48.162;11.542;2023-12-22T05:17:33;177.13;;;163.18;;
8254;SDS011;4167;48.162;11.542;2023-12-22T05:20:00;181.13;;;169.65;;
8254;SDS011;4167;48.162;11.542;2023-12-22T05:22:26;167.82;;;147.75;;
8254;SDS011;4167;48.162;11.542;2023-12-22T05:24:55;164.32;;;152.35;;
8254;SDS011;4167;48.162;11.542;2023-12-22T05:27:21;173.52;;;157.27;;
8254;SDS011;4167;48.162;11.542;2023-12-22T05:29:48;165.13;;;152.15;;
8254;SDS011;4167;48.162;11.542;2023-12-22T05:32:15;169.00;;;152.20;;
8254;SDS011;4167;48.162;11.542;2023-12-22T05:34:42;163.07;;;149.88;;
8254;SDS011;4167;48.162;11.542;2023-12-22T05:37:08;170.95;;;154.27;;
8254;SDS011;4167;48.162;11.542;2023-12-22T05:39:35;176.20;;;161.02;;
8254;SDS011;4167;48.162;11.542;2023-12-22T05:42:01;161.73;;;148.65;;
8254;SDS011;4167;48.162;11.542;2023-12-22T05:44:28;179.25;;;161.07;;
8254;SDS011;4167;48.162;11.542;2023-12-22T05:46:55;175.32;;;157.18;;
8254;SDS011;4167;48.162;11.542;2023-12-22T05:49:23;181.93;;;162.98;;
8254;SDS011;4167;48.162;11.542;2023-12-22T05:51:50;183.35;;;167.18;;
8254;SDS011;4167;48.162;11.542;2023-12-22T05:54:17;180.07;;;162.88;;
8254;SDS011;4167;48.162;11.542;2023-12-22T05:56:44;161.98;;;149.00;;
8254;SDS011;4167;48.162;11.542;2023-12-22T05:59:10;171.00;;;155.98;;
8254;SDS011;4167;48.162;11.542;2023-12-22T06:01:37;184.43;;;170.93;;
8254;SDS011;4167;48.162;11.542;2023-12-22T06:04:03;177.35;;;164.02;;
8254;SDS011;4167;48.162;11.542;2023-12-22T06:06:32;180.90;;;166.23;;
8254;SDS011;4167;48.162;11.542;2023-12-22T06:08:58;180.82;;;166.93;;
8254;SDS011;4167;48.162;11.542;2023-12-22T06:11:25;199.88;;;183.38;;
8254;SDS011;4167;48.162;11.542;2023-12-22T06:13:51;193.63;;;179.30;;
8254;SDS011;4167;48.162;11.542;2023-12-22T06:16:18;236.35;;;220.77;;
8254;SDS011;4167;48.162;11.542;2023-12-22T06:48:08;168.10;;;157.50;;
8254;SDS011;4167;48.162;11.542;2023-12-22T06:50:35;184.27;;;166.57;;
8254;SDS011;4167;48.162;11.542;2023-12-22T06:53:04;172.32;;;159.73;;
8254;SDS011;4167;48.162;11.542;2023-12-22T06:55:30;176.73;;;163.88;;
8254;SDS011;4167;48.162;11.542;2023-12-22T06:57:58;175.95;;;164.30;;
8254;SDS011;4167;48.162;11.542;2023-12-22T07:00:25;178.02;;;165.07;;
8254;SDS011;4167;48.162;11.542;2023-12-22T07:02:51;175.20;;;162.18;;
8254;SDS011;4167;48.162;11.542;2023-12-22T07:05:31;177.63;;;163.48;;
8254;SDS011;4167;48.162;11.542;2023-12-22T07:07:58;194.93;;;180.90;;
8254;SDS011;4167;48.162;11.542;2023-12-22T07:10:25;186.52;;;170.80;;
8254;SDS011;4167;48.162;11.542;2023-12-22T07:12:52;192.50;;;177.48;;
8254;SDS011;4167;48.162;11.542;2023-12-22T07:15:20;187.75;;;172.50;;
8254;SDS011;4167;48.162;11.542;2023-12-22T07:17:46;184.32;;;171.30;;
8254;SDS011;4167;48.162;11.542;2023-12-22T07:20:13;188.05;;;172.85;;
8254;SDS011;4167;48.162;11.542;2023-12-22T07:22:39;195.50;;;181.15;;
8254;SDS011;4167;48.162;11.542;2023-12-22T07:25:06;197.63;;;184.77;;
8254;SDS011;4167;48.162;11.542;2023-12-22T07:27:33;217.45;;;200.18;;
8254;SDS011;4167;48.162;11.542;2023-12-22T07:30:00;209.13;;;194.73;;
8254;SDS011;4167;48.162;11.542;2023-12-22T07:32:27;220.82;;;205.30;;
8254;SDS011;4167;48.162;11.542;2023-12-22T07:34:55;216.77;;;202.93;;
8254;SDS011;4167;48.162;11.542;2023-12-22T07:37:21;228.57;;;213.93;;
8254;SDS011;4167;48.162;11.542;2023-12-22T07:39:47;230.15;;;215.63;;
8254;SDS011;4167;48.162;11.542;2023-12-22T07:42:14;225.75;;;210.98;;
8254;SDS011;4167;48.162;11.542;2023-12-22T07:44:41;212.52;;;197.20;;
8254;SDS011;4167;48.162;11.542;2023-12-22T07:47:08;249.52;;;233.50;;
8254;SDS011;4167;48.162;11.542;2023-12-22T08:36:06;213.97;;;198.23;;
8254;SDS011;4167;48.162;11.542;2023-12-22T08:38:32;196.98;;;181.43;;
8254;SDS011;4167;48.162;11.542;2023-12-22T08:41:00;205.00;;;191.20;;
8254;SDS011;4167;48.162;11.542;2023-12-22T08:43:27;203.80;;;188.18;;
8254;SDS011;4167;48.162;11.542;2023-12-22T08:45:53;200.75;;;186.20;;
8254;SDS011;4167;48.162;11.542;2023-12-22T08:48:20;212.30;;;199.00;;
8254;SDS011;4167;48.162;11.542;2023-12-22T08:50:46;258.85;;;241.93;;
8254;SDS011;4167;48.162;11.542;2023-12-22T08:53:13;206.48;;;192.13;;
8254;SDS011;4167;48.162;11.542;2023-12-22T08:55:39;210.30;;;191.77;;
8254;SDS011;4167;48.162;11.542;2023-12-22T08:58:07;221.32;;;204.48;;
8254;SDS011;4167;48.162;11.542;2023-12-22T09:00:34;215.88;;;197.25;;
8254;SDS011;4167;48.162;11.542;2023-12-22T09:03:00;205.50;;;190.75;;
8254;SDS011;4167;48.162;11.542;2023-12-22T09:05:27;198.00;;;184.13;;
8254;SDS011;4167;48.162;11.542;2023-12-22T09:07:53;206.85;;;192.07;;
8254;SDS011;4167;48.162;11.542;2023-12-22T09:10:20;203.15;;;188.75;;
8254;SDS011;4167;48.162;11.542;2023-12-22T09:12:47;214.73;;;199.05;;
8254;SDS011;4167;48.162;11.542;2023-12-22T09:15:15;253.38;;;236.05;;
8254;SDS011;4167;48.162;11.542;2023-12-22T09:17:42;266.15;;;248.80;;
8254;SDS011;4167;48.162;11.542;2023-12-22T09:20:09;253.05;;;233.82;;
8254;SDS011;4167;48.162;11.542;2023-12-22T09:22:35;258.38;;;237.95;;
8254;SDS011;4167;48.162;11.542;2023-12-22T09:25:02;212.32;;;198.15;;
8254;SDS011;4167;48.162;11.542;2023-12-22T09:27:29;277.35;;;259.92;;
8254;SDS011;4167;48.162;11.542;2023-12-22T09:29:56;210.70;;;197.32;;
8254;SDS011;4167;48.162;11.542;2023-12-22T09:32:24;233.07;;;216.40;;
8254;SDS011;4167;48.162;11.542;2023-12-22T09:34:51;223.25;;;208.30;;
8254;SDS011;4167;48.162;11.542;2023-12-22T09:37:20;223.27;;;207.50;;
8254;SDS011;4167;48.162;11.542;2023-12-22T09:39:46;230.80;;;216.50;;
8254;SDS011;4167;48.162;11.542;2023-12-22T09:42:12;237.68;;;223.07;;
8254;SDS011;4167;48.162;11.542;2023-12-22T09:44:40;284.00;;;266.35;;
8254;SDS011;4167;48.162;11.542;2023-12-22T09:47:09;344.73;;;326.63;;
8254;SDS011;4167;48.162;11.542;2023-12-22T09:49:38;555.58;;;530.90;;
8254;SDS011;4167;48.162;11.542;2023-12-22T09:52:05;252.88;;;237.40;;
8254;SDS011;4167;48.162;11.542;2023-12-22T09:54:32;263.52;;;247.05;;
8254;SDS011;4167;48.162;11.542;2023-12-22T09:56:59;259.77;;;242.95;;
8254;SDS011;4167;48.162;11.542;2023-12-22T09:59:25;240.18;;;224.70;;
8254;SDS011;4167;48.162;11.542;2023-12-22T10:01:53;244.57;;;228.80;;
8254;SDS011;4167;48.162;11.542;2023-12-22T10:04:21;255.63;;;236.75;;
8254;SDS011;4167;48.162;11.542;2023-12-22T10:06:49;283.67;;;265.92;;
8254;SDS011;4167;48.162;11.542;2023-12-22T10:09:16;263.10;;;245.70;;
8254;SDS011;4167;48.162;11.542;2023-12-22T10:11:43;251.77;;;234.55;;
8254;SDS011;4167;48.162;11.542;2023-12-22T10:14:10;256.38;;;240.27;;
8254;SDS011;4167;48.162;11.542;2023-12-22T10:16:36;246.38;;;230.75;;
8254;SDS011;4167;48.162;11.542;2023-12-22T10:19:03;227.43;;;214.13;;
8254;SDS011;4167;48.162;11.542;2023-12-22T10:21:30;261.10;;;245.93;;
8254;SDS011;4167;48.162;11.542;2023-12-22T10:23:58;268.23;;;251.95;;
8254;SDS011;4167;48.162;11.542;2023-12-22T10:26:24;247.80;;;232.32;;
8254;SDS011;4167;48.162;11.542;2023-12-22T10:28:51;237.63;;;221.30;;
8254;SDS011;4167;48.162;11.542;2023-12-22T10:31:17;236.70;;;220.80;;
8254;SDS011;4167;48.162;11.542;2023-12-22T10:33:44;242.23;;;226.75;;
8254;SDS011;4167;48.162;11.542;2023-12-22T10:36:10;266.35;;;249.00;;
8254;SDS011;4167;48.162;11.542;2023-12-22T10:38:37;215.27;;;201.18;;
8254;SDS011;4167;48.162;11.542;2023-12-22T10:41:05;224.32;;;208.90;;
8254;SDS011;4167;48.162;11.542;2023-12-22T10:43:36;232.68;;;217.80;;
8254;SDS011;4167;48.162;11.542;2023-12-22T10:46:03;225.77;;;211.23;;
8254;SDS011;4167;48.162;11.542;2023-12-22T10:48:29;235.57;;;220.45;;
8254;SDS011;4167;48.162;11.542;2023-12-22T10:50:56;219.15;;;205.95;;
8254;SDS011;4167;48.162;11.542;2023-12-22T10:53:22;222.15;;;208.20;;
8254;SDS011;4167;48.162;11.542;2023-12-22T10:55:49;240.25;;;224.43;;
8254;SDS011;4167;48.162;11.542;2023-12-22T10:58:17;249.27;;;233.85;;
8254;SDS011;4167;48.162;11.542;2023-12-22T11:00:44;237.48;;;219.15;;
8254;SDS011;4167;48.162;11.542;2023-12-22T11:03:12;221.75;;;204.65;;
8254;SDS011;4167;48.162;11.542;2023-12-22T11:05:44;244.48;;;227.32;;
8254;SDS011;4167;48.162;11.542;2023-12-22T11:08:12;221.70;;;204.52;;
8254;SDS011;4167;48.162;11.542;2023-12-22T11:10:40;229.43;;;212.32;;
8254;SDS011;4167;48.162;11.542;2023-12-22T11:13:08;239.70;;;222.65;;
8254;SDS011;4167;48.162;11.542;2023-12-22T11:15:36;224.40;;;208.88;;
8254;SDS011;4167;48.162;11.542;2023-12-22T11:18:04;220.77;;;206.30;;
8254;SDS011;4167;48.162;11.542;2023-12-22T11:20:31;224.57;;;209.10;;
8254;SDS011;4167;48.162;11.542;2023-12-22T11:22:59;228.07;;;211.73;;
8254;SDS011;4167;48.162;11.542;2023-12-22T11:25:26;223.93;;;207.38;;
8254;SDS011;4167;48.162;11.542;2023-12-22T11:27:53;230.75;;;213.40;;
8254;SDS011;4167;48.162;11.542;2023-12-22T11:30:20;235.18;;;219.65;;
8254;SDS011;4167;48.162;11.542;2023-12-22T11:32:50;236.38;;;219.15;;
8254;SDS011;4167;48.162;11.542;2023-12-22T11:35:17;250.00;;;233.13;;
8254;SDS011;4167;48.162;11.542;2023-12-22T11:37:44;248.50;;;229.55;;
8254;SDS011;4167;48.162;11.542;2023-12-22T11:40:11;247.40;;;230.23;;
8254;SDS011;4167;48.162;11.542;2023-12-22T11:42:38;236.15;;;220.48;;
8254;SDS011;4167;48.162;11.542;2023-12-22T11:45:09;235.43;;;219.25;;
8254;SDS011;4167;48.162;11.542;2023-12-22T11:47:35;251.18;;;233.38;;
8254;SDS011;4167;48.162;11.542;2023-12-22T11:50:05;232.95;;;215.60;;
8254;SDS011;4167;48.162;11.542;2023-12-22T11:52:35;226.23;;;211.38;;
8254;SDS011;4167;48.162;11.542;2023-12-22T11:55:05;224.07;;;209.40;;
8254;SDS011;4167;48.162;11.542;2023-12-22T11:57:33;232.48;;;216.40;;
8254;SDS011;4167;48.162;11.542;2023-12-22T12:00:05;230.18;;;215.48;;
8254;SDS011;4167;48.162;11.542;2023-12-22T12:02:33;246.43;;;232.32;;
8254;SDS011;4167;48.162;11.542;2023-12-22T12:05:00;242.45;;;225.80;;
8254;SDS011;4167;48.162;11.542;2023-12-22T12:07:38;237.60;;;222.35;;
8254;SDS011;4167;48.162;11.542;2023-12-22T12:10:07;218.88;;;203.82;;
8254;SDS011;4167;48.162;11.542;2023-12-22T12:12:33;219.45;;;204.55;;
8254;SDS011;4167;48.162;11.542;2023-12-22T12:15:06;222.75;;;208.10;;
8254;SDS011;4167;48.162;11.542;2023-12-22T12:17:37;236.90;;;221.32;;
8254;SDS011;4167;48.162;11.542;2023-12-22T12:20:04;228.27;;;212.45;;
8254;SDS011;4167;48.162;11.542;2023-12-22T12:22:32;229.38;;;213.80;;
8254;SDS011;4167;48.162;11.542;2023-12-22T12:25:00;247.05;;;230.98;;
8254;SDS011;4167;48.162;11.542;2023-12-22T12:27:27;244.50;;;225.70;;
8254;SDS011;4167;48.162;11.542;2023-12-22T12:29:53;215.48;;;200.30;;
8254;SDS011;4167;48.162;11.542;2023-12-22T12:32:22;214.00;;;199.15;;
8254;SDS011;4167;48.162;11.542;2023-12-22T12:34:49;226.57;;;209.90;;
8254;SDS011;4167;48.162;11.542;2023-12-22T12:37:17;232.38;;;213.30;;
8254;SDS011;4167;48.162;11.542;2023-12-22T12:39:45;221.50;;;206.48;;
8254;SDS011;4167;48.162;11.542;2023-12-22T12:42:15;209.02;;;193.63;;
8254;SDS011;4167;48.162;11.542;2023-12-22T12:44:41;218.20;;;202.98;;
8254;SDS011;4167;48.162;11.542;2023-12-22T12:47:12;212.27;;;197.80;;
8254;SDS011;4167;48.162;11.542;2023-12-22T12:49:38;209.88;;;196.55;;
8254;SDS011;4167;48.162;11.542;2023-12-22T12:52:05;234.52;;;218.75;;
8254;SDS011;4167;48.162;11.542;2023-12-22T12:54:32;235.15;;;219.27;;
8254;SDS011;4167;48.162;11.542;2023-12-22T12:56:58;230.45;;;212.93;;
8254;SDS011;4167;48.162;11.542;2023-12-22T12:59:26;236.55;;;220.93;;
8254;SDS011;4167;48.162;11.542;2023-12-22T13:01:52;254.05;;;237.32;;
8254;SDS011;4167;48.162;11.542;2023-12-22T13:04:19;247.35;;;230.55;;
8254;SDS011;4167;48.162;11.542;2023-12-22T13:06:45;242.85;;;223.55;;
8254;SDS011;4167;48.162;11.542;2023-12-22T13:09:12;223.68;;;206.13;;
8254;SDS011;4167;48.162;11.542;2023-12-22T13:11:39;219.75;;;201.82;;
8254;SDS011;4167;48.162;11.542;2023-12-22T13:14:07;235.18;;;215.48;;
8254;SDS011;4167;48.162;11.542;2023-12-22T13:16:34;225.13;;;210.40;;
8254;SDS011;4167;48.162;11.542;2023-12-22T13:19:01;235.70;;;212.70;;
8254;SDS011;4167;48.162;11.542;2023-12-22T13:21:28;243.75;;;226.38;;
8254;SDS011;4167;48.162;11.542;2023-12-22T13:24:10;249.35;;;226.70;;
8254;SDS011;4167;48.162;11.542;2023-12-22T13:26:38;240.65;;;223.35;;
8254;SDS011;4167;48.162;11.542;2023-12-22T13:29:05;230.88;;;211.73;;
8254;SDS011;4167;48.162;11.542;2023-12-22T13:31:31;236.25;;;217.38;;
8254;SDS011;4167;48.162;11.542;2023-12-22T13:33:59;247.65;;;223.93;;
8254;SDS011;4167;48.162;11.542;2023-12-22T13:36:26;249.68;;;227.80;;
8254;SDS011;4167;48.162;11.542;2023-12-22T13:38:52;270.20;;;243.88;;
8254;SDS011;4167;48.162;11.542;2023-12-22T13:41:19;230.13;;;213.55;;
8254;SDS011;4167;48.162;11.542;2023-12-22T13:43:46;249.85;;;223.43;;
8254;SDS011;4167;48.162;11.542;2023-12-22T13:46:13;273.48;;;237.60;;
8254;SDS011;4167;48.162;11.542;2023-12-22T13:48:40;237.73;;;218.48;;
8254;SDS011;4167;48.162;11.542;2023-12-22T13:51:08;245.93;;;217.32;;
8254;SDS011;4167;48.162;11.542;2023-12-22T13:53:35;229.00;;;209.38;;
8254;SDS011;4167;48.162;11.542;2023-12-22T13:56:01;246.48;;;222.57;;
8254;SDS011;4167;48.162;11.542;2023-12-22T13:58:28;213.05;;;197.65;;
8254;SDS011;4167;48.162;11.542;2023-12-22T14:00:54;261.80;;;234.52;;
8254;SDS011;4167;48.162;11.542;2023-12-22T14:03:22;228.43;;;211.10;;
8254;SDS011;4167;48.162;11.542;2023-12-22T14:05:48;244.65;;;221.80;;
8254;SDS011;4167;48.162;11.542;2023-12-22T14:08:16;228.00;;;206.15;;
8254;SDS011;4167;48.162;11.542;2023-12-22T14:10:46;222.10;;;203.68;;
8254;SDS011;4167;48.162;11.542;2023-12-22T14:13:13;253.85;;;227.25;;
8254;SDS011;4167;48.162;11.542;2023-12-22T14:15:41;216.18;;;198.25;;
8254;SDS011;4167;48.162;11.542;2023-12-22T14:18:07;226.85;;;209.48;;
8254;SDS011;4167;48.162;11.542;2023-12-22T14:20:34;260.05;;;237.90;;
8254;SDS011;4167;48.162;11.542;2023-12-22T14:23:00;256.63;;;229.73;;
8254;SDS011;4167;48.162;11.542;2023-12-22T14:25:28;225.82;;;208.43;;
8254;SDS011;4167;48.162;11.542;2023-12-22T14:27:56;230.65;;;208.85;;
8254;SDS011;4167;48.162;11.542;2023-12-22T14:30:24;234.20;;;215.27;;
8254;SDS011;4167;48.162;11.542;2023-12-22T14:32:50;243.35;;;218.38;;
8254;SDS011;4167;48.162;11.542;2023-12-22T14:35:17;230.07;;;212.57;;
8254;SDS011;4167;48.162;11.542;2023-12-22T14:37:43;239.57;;;220.70;;
8254;SDS011;4167;48.162;11.542;2023-12-22T14:42:38;228.52;;;210.60;;
8254;SDS011;4167;48.162;11.542;2023-12-22T14:45:05;248.63;;;225.38;;
8254;SDS011;4167;48.162;11.542;2023-12-22T14:47:32;239.98;;;222.93;;
8254;SDS011;4167;48.162;11.542;2023-12-22T14:49:59;253.30;;;230.18;;
8254;SDS011;4167;48.162;11.542;2023-12-22T14:52:29;236.85;;;212.52;;
8254;SDS011;4167;48.162;11.542;2023-12-22T14:54:56;231.50;;;208.35;;
8254;SDS011;4167;48.162;11.542;2023-12-22T14:57:23;244.00;;;226.75;;
8254;SDS011;4167;48.162;11.542;2023-12-22T14:59:51;246.90;;;229.30;;
8254;SDS011;4167;48.162;11.542;2023-12-22T15:02:17;224.02;;;206.13;;
8254;SDS011;4167;48.162;11.542;2023-12-22T15:04:44;241.45;;;222.13;;
8254;SDS011;4167;48.162;11.542;2023-12-22T15:07:14;235.30;;;215.40;;
8254;SDS011;4167;48.162;11.542;2023-12-22T15:09:40;220.05;;;205.93;;
8254;SDS011;4167;48.162;11.542;2023-12-22T15:12:07;234.27;;;212.85;;
8254;SDS011;4167;48.162;11.542;2023-12-22T15:14:33;214.30;;;198.60;;
8254;SDS011;4167;48.162;11.542;2023-12-22T15:17:01;236.25;;;212.57;;
8254;SDS011;4167;48.162;11.542;2023-12-22T15:19:27;237.43;;;217.13;;
8254;SDS011;4167;48.162;11.542;2023-12-22T15:21:54;228.73;;;210.20;;
8254;SDS011;4167;48.162;11.542;2023-12-22T15:24:20;227.48;;;208.85;;
8254;SDS011;4167;48.162;11.542;2023-12-22T15:26:48;226.27;;;207.52;;
8254;SDS011;4167;48.162;11.542;2023-12-22T15:29:15;242.73;;;225.55;;
8254;SDS011;4167;48.162;11.542;2023-12-22T15:31:41;227.90;;;211.27;;
8254;SDS011;4167;48.162;11.542;2023-12-22T15:34:09;244.88;;;221.07;;
8254;SDS011;4167;48.162;11.542;2023-12-22T15:36:35;210.77;;;192.32;;
8254;SDS011;4167;48.162;11.542;2023-12-22T15:39:02;240.82;;;219.15;;
8254;SDS011;4167;48.162;11.542;2023-12-22T15:41:29;229.20;;;209.30;;
8254;SDS011;4167;48.162;11.542;2023-12-22T15:43:55;240.90;;;220.70;;
8254;SDS011;4167;48.162;11.542;2023-12-22T15:46:22;229.48;;;211.32;;
8254;SDS011;4167;48.162;11.542;2023-12-22T15:48:48;235.70;;;214.75;;
8254;SDS011;4167;48.162;11.542;2023-12-22T15:51:16;247.77;;;228.35;;
8254;SDS011;4167;48.162;11.542;2023-12-22T15:53:42;239.88;;;217.45;;
8254;SDS011;4167;48.162;11.542;2023-12-22T15:56:09;245.60;;;221.05;;
8254;SDS011;4167;48.162;11.542;2023-12-22T15:58:37;227.05;;;210.93;;
8254;SDS011;4167;48.162;11.542;2023-12-22T16:01:05;251.27;;;227.25;;
8254;SDS011;4167;48.162;11.542;2023-12-22T16:03:32;236.00;;;216.73;;
8254;SDS011;4167;48.162;11.542;2023-12-22T16:06:01;254.02;;;228.63;;
8254;SDS011;4167;48.162;11.542;2023-12-22T16:08:29;239.07;;;222.30;;
8254;SDS011;4167;48.162;11.542;2023-12-22T16:10:58;232.05;;;213.60;;
8254;SDS011;4167;48.162;11.542;2023-12-22T16:13:24;247.50;;;227.98;;
8254;SDS011;4167;48.162;11.542;2023-12-22T16:15:54;241.30;;;220.77;;
8254;SDS011;4167;48.162;11.542;2023-12-22T16:18:20;248.10;;;227.48;;
8254;SDS011;4167;48.162;11.542;2023-12-22T16:20:47;248.80;;;228.27;;
8254;SDS011;4167;48.162;11.542;2023-12-22T16:23:14;252.23;;;229.93;;
8254;SDS011;4167;48.162;11.542;2023-12-22T16:25:42;245.80;;;226.88;;
8254;SDS011;4167;48.162;11.542;2023-12-22T16:28:08;245.63;;;223.63;;
8254;SDS011;4167;48.162;11.542;2023-12-22T16:30:35;252.05;;;234.57;;
8254;SDS011;4167;48.162;11.542;2023-12-22T16:33:01;278.38;;;254.35;;
8254;SDS011;4167;48.162;11.542;2023-12-22T16:35:28;232.25;;;215.70;;
8254;SDS011;4167;48.162;11.542;2023-12-22T16:37:54;281.10;;;260.60;;
8254;SDS011;4167;48.162;11.542;2023-12-22T16:40:21;247.82;;;229.38;;
8254;SDS011;4167;48.162;11.542;2023-12-22T16:42:48;264.90;;;243.57;;
8254;SDS011;4167;48.162;11.542;2023-12-22T16:45:15;270.98;;;247.30;;
8254;SDS011;4167;48.162;11.542;2023-12-22T16:47:41;273.33;;;254.48;;
8254;SDS011;4167;48.162;11.542;2023-12-22T16:50:08;330.50;;;304.27;;
8254;SDS011;4167;48.162;11.542;2023-12-22T16:52:35;293.85;;;276.05;;
8254;SDS011;4167;48.162;11.542;2023-12-22T16:55:02;320.58;;;291.00;;
8254;SDS011;4167;48.162;11.542;2023-12-22T16:57:28;338.67;;;308.15;;
8254;SDS011;4167;48.162;11.542;2023-12-22T16:59:56;363.05;;;341.65;;
8254;SDS011;4167;48.162;11.542;2023-12-22T17:02:22;384.88;;;361.80;;
8254;SDS011;4167;48.162;11.542;2023-12-22T17:04:49;627.03;;;598.50;;
8254;SDS011;4167;48.162;11.542;2023-12-22T17:07:15;273.67;;;250.52;;
8254;SDS011;4167;48.162;11.542;2023-12-22T17:09:44;271.20;;;253.57;;
8254;SDS011;4167;48.162;11.542;2023-12-22T17:12:11;280.52;;;254.85;;
8254;SDS011;4167;48.162;11.542;2023-12-22T17:14:37;264.45;;;244.85;;
8254;SDS011;4167;48.162;11.542;2023-12-22T17:17:05;270.33;;;248.77;;
8254;SDS011;4167;48.162;11.542;2023-12-22T17:19:31;277.85;;;259.08;;
8254;SDS011;4167;48.162;11.542;2023-12-22T17:21:59;296.48;;;275.02;;
8254;SDS011;4167;48.162;11.542;2023-12-22T17:24:26;258.50;;;239.50;;
8254;SDS011;4167;48.162;11.542;2023-12-22T17:26:52;254.57;;;236.68;;
8254;SDS011;4167;48.162;11.542;2023-12-22T17:29:18;293.73;;;263.42;;
8254;SDS011;4167;48.162;11.542;2023-12-22T17:31:45;276.40;;;258.02;;
8254;SDS011;4167;48.162;11.542;2023-12-22T17:34:13;316.40;;;290.92;;
8254;SDS011;4167;48.162;11.542;2023-12-22T17:36:39;263.58;;;245.18;;
8254;SDS011;4167;48.162;11.542;2023-12-22T17:39:05;290.63;;;269.80;;
8254;SDS011;4167;48.162;11.542;2023-12-22T17:41:32;294.80;;;274.27;;
8254;SDS011;4167;48.162;11.542;2023-12-22T17:43:58;277.67;;;258.05;;
8254;SDS011;4167;48.162;11.542;2023-12-22T17:46:25;286.75;;;266.50;;
8254;SDS011;4167;48.162;11.542;2023-12-22T17:48:51;262.80;;;243.50;;